Terminal Aerodrome Forecast
Issued by NWS Corpus Christi, TX

Home | Current Version | Previous Version | Text Only | Print | Product List | Glossary On
Versions: 1 2 3 4 5 6 7 8 9 10 11 12 13 14 15 16 17
715
FTUS44 KCRP 210650 AAA
TAFVCT
TAF AMD
KVCT 210650Z 2107/2206 12004KT 1/2SM FG VV003
     FM211500 15008KT P6SM BKN024
     FM211800 16010KT P6SM VCSH SCT025 BKN035
     FM212300 15008KT P6SM SCT025=

USA.gov is the U.S. government's official web portal to all federal, state and local government web resources and services.